sensor_id;sensor_type;location;lat;lon;timestamp;P1;durP1;ratioP1;P2;durP2;ratioP2
29730;SDS011;16639;51.488;0.152;2023-05-18T00:01:48;15.38;;;4.30;;
29730;SDS011;16639;51.488;0.152;2023-05-18T00:04:20;9.52;;;3.95;;
29730;SDS011;16639;51.488;0.152;2023-05-18T00:06:50;12.85;;;4.03;;
29730;SDS011;16639;51.488;0.152;2023-05-18T00:09:29;14.57;;;3.88;;
29730;SDS011;16639;51.488;0.152;2023-05-18T00:11:59;16.63;;;3.38;;
29730;SDS011;16639;51.488;0.152;2023-05-18T00:14:27;15.18;;;3.83;;
29730;SDS011;16639;51.488;0.152;2023-05-18T00:16:55;8.85;;;3.92;;
29730;SDS011;16639;51.488;0.152;2023-05-18T00:19:23;11.10;;;3.97;;
29730;SDS011;16639;51.488;0.152;2023-05-18T00:21:51;16.15;;;3.90;;
29730;SDS011;16639;51.488;0.152;2023-05-18T00:24:18;15.43;;;5.22;;
29730;SDS011;16639;51.488;0.152;2023-05-18T00:26:47;10.45;;;3.72;;
29730;SDS011;16639;51.488;0.152;2023-05-18T00:29:15;8.98;;;4.03;;
29730;SDS011;16639;51.488;0.152;2023-05-18T00:31:42;12.23;;;3.67;;
29730;SDS011;16639;51.488;0.152;2023-05-18T00:34:12;13.25;;;3.97;;
29730;SDS011;16639;51.488;0.152;2023-05-18T00:36:40;16.05;;;4.57;;
29730;SDS011;16639;51.488;0.152;2023-05-18T00:39:08;12.73;;;3.90;;
29730;SDS011;16639;51.488;0.152;2023-05-18T00:41:35;10.77;;;4.13;;
29730;SDS011;16639;51.488;0.152;2023-05-18T00:44:02;16.52;;;4.28;;
29730;SDS011;16639;51.488;0.152;2023-05-18T00:46:30;13.50;;;4.20;;
29730;SDS011;16639;51.488;0.152;2023-05-18T00:48:59;13.77;;;3.60;;
29730;SDS011;16639;51.488;0.152;2023-05-18T00:51:30;17.92;;;3.72;;
29730;SDS011;16639;51.488;0.152;2023-05-18T00:53:59;12.45;;;3.95;;
29730;SDS011;16639;51.488;0.152;2023-05-18T00:56:28;13.27;;;4.63;;
29730;SDS011;16639;51.488;0.152;2023-05-18T00:59:00;13.05;;;4.05;;
29730;SDS011;16639;51.488;0.152;2023-05-18T01:01:29;12.70;;;3.63;;
29730;SDS011;16639;51.488;0.152;2023-05-18T01:04:03;16.00;;;4.57;;
29730;SDS011;16639;51.488;0.152;2023-05-18T01:06:31;12.50;;;3.60;;
29730;SDS011;16639;51.488;0.152;2023-05-18T01:09:02;19.35;;;4.45;;
29730;SDS011;16639;51.488;0.152;2023-05-18T01:11:37;13.20;;;3.72;;
29730;SDS011;16639;51.488;0.152;2023-05-18T01:14:12;20.20;;;4.68;;
29730;SDS011;16639;51.488;0.152;2023-05-18T01:22:29;13.85;;;4.13;;
29730;SDS011;16639;51.488;0.152;2023-05-18T01:25:31;21.77;;;4.00;;
29730;SDS011;16639;51.488;0.152;2023-05-18T01:28:07;18.02;;;6.03;;
29730;SDS011;16639;51.488;0.152;2023-05-18T01:30:39;15.85;;;4.00;;
29730;SDS011;16639;51.488;0.152;2023-05-18T01:33:08;12.52;;;3.95;;
29730;SDS011;16639;51.488;0.152;2023-05-18T01:35:37;10.93;;;3.67;;
29730;SDS011;16639;51.488;0.152;2023-05-18T01:38:07;17.45;;;4.15;;
29730;SDS011;16639;51.488;0.152;2023-05-18T01:40:40;12.40;;;4.53;;
29730;SDS011;16639;51.488;0.152;2023-05-18T01:43:30;15.57;;;4.30;;
29730;SDS011;16639;51.488;0.152;2023-05-18T01:46:08;12.52;;;4.13;;
29730;SDS011;16639;51.488;0.152;2023-05-18T01:48:45;18.80;;;4.18;;
29730;SDS011;16639;51.488;0.152;2023-05-18T01:51:19;11.88;;;4.22;;
29730;SDS011;16639;51.488;0.152;2023-05-18T01:53:55;18.27;;;4.95;;
29730;SDS011;16639;51.488;0.152;2023-05-18T01:56:26;18.50;;;4.20;;
29730;SDS011;16639;51.488;0.152;2023-05-18T01:58:54;20.50;;;5.20;;
29730;SDS011;16639;51.488;0.152;2023-05-18T02:01:23;11.85;;;4.53;;
29730;SDS011;16639;51.488;0.152;2023-05-18T02:03:51;16.50;;;4.72;;
29730;SDS011;16639;51.488;0.152;2023-05-18T02:06:19;16.27;;;4.35;;
29730;SDS011;16639;51.488;0.152;2023-05-18T02:08:46;20.25;;;4.78;;
29730;SDS011;16639;51.488;0.152;2023-05-18T02:11:14;19.35;;;5.50;;
29730;SDS011;16639;51.488;0.152;2023-05-18T02:13:42;16.52;;;5.55;;
29730;SDS011;16639;51.488;0.152;2023-05-18T02:16:09;17.90;;;5.20;;
29730;SDS011;16639;51.488;0.152;2023-05-18T02:18:37;22.45;;;5.22;;
29730;SDS011;16639;51.488;0.152;2023-05-18T02:21:05;11.18;;;4.90;;
29730;SDS011;16639;51.488;0.152;2023-05-18T02:23:35;17.92;;;6.25;;
29730;SDS011;16639;51.488;0.152;2023-05-18T02:26:02;19.92;;;5.55;;
29730;SDS011;16639;51.488;0.152;2023-05-18T02:28:29;16.60;;;5.70;;
29730;SDS011;16639;51.488;0.152;2023-05-18T02:31:04;16.45;;;5.93;;
29730;SDS011;16639;51.488;0.152;2023-05-18T02:33:32;20.83;;;5.65;;
29730;SDS011;16639;51.488;0.152;2023-05-18T02:36:09;16.00;;;6.18;;
29730;SDS011;16639;51.488;0.152;2023-05-18T02:38:39;14.60;;;5.47;;
29730;SDS011;16639;51.488;0.152;2023-05-18T02:41:08;16.02;;;6.03;;
29730;SDS011;16639;51.488;0.152;2023-05-18T02:43:36;16.27;;;6.25;;
29730;SDS011;16639;51.488;0.152;2023-05-18T02:46:03;26.60;;;5.47;;
29730;SDS011;16639;51.488;0.152;2023-05-18T02:48:31;19.77;;;6.18;;
29730;SDS011;16639;51.488;0.152;2023-05-18T02:50:59;18.95;;;6.28;;
29730;SDS011;16639;51.488;0.152;2023-05-18T02:53:26;22.38;;;6.03;;
29730;SDS011;16639;51.488;0.152;2023-05-18T02:55:54;17.75;;;5.50;;
29730;SDS011;16639;51.488;0.152;2023-05-18T02:58:23;19.45;;;6.15;;
29730;SDS011;16639;51.488;0.152;2023-05-18T03:00:51;11.93;;;6.05;;
29730;SDS011;16639;51.488;0.152;2023-05-18T03:03:21;26.60;;;6.40;;
29730;SDS011;16639;51.488;0.152;2023-05-18T03:05:50;17.42;;;5.95;;
29730;SDS011;16639;51.488;0.152;2023-05-18T03:08:19;17.50;;;6.57;;
29730;SDS011;16639;51.488;0.152;2023-05-18T03:10:48;19.88;;;6.55;;
29730;SDS011;16639;51.488;0.152;2023-05-18T03:13:16;17.30;;;5.82;;
29730;SDS011;16639;51.488;0.152;2023-05-18T03:15:43;17.80;;;6.13;;
29730;SDS011;16639;51.488;0.152;2023-05-18T03:18:15;17.60;;;6.38;;
29730;SDS011;16639;51.488;0.152;2023-05-18T03:20:43;14.63;;;5.40;;
29730;SDS011;16639;51.488;0.152;2023-05-18T03:23:10;19.23;;;5.90;;
29730;SDS011;16639;51.488;0.152;2023-05-18T03:25:38;19.58;;;5.85;;
29730;SDS011;16639;51.488;0.152;2023-05-18T03:28:05;13.23;;;5.82;;
29730;SDS011;16639;51.488;0.152;2023-05-18T03:30:33;15.27;;;5.63;;
29730;SDS011;16639;51.488;0.152;2023-05-18T03:33:01;13.90;;;6.00;;
29730;SDS011;16639;51.488;0.152;2023-05-18T03:35:28;21.02;;;5.60;;
29730;SDS011;16639;51.488;0.152;2023-05-18T03:37:59;12.25;;;4.78;;
29730;SDS011;16639;51.488;0.152;2023-05-18T03:40:27;14.65;;;5.72;;
29730;SDS011;16639;51.488;0.152;2023-05-18T03:42:55;18.50;;;5.75;;
29730;SDS011;16639;51.488;0.152;2023-05-18T03:45:22;13.93;;;5.43;;
29730;SDS011;16639;51.488;0.152;2023-05-18T03:47:49;15.00;;;5.80;;
29730;SDS011;16639;51.488;0.152;2023-05-18T03:50:17;21.60;;;5.50;;
29730;SDS011;16639;51.488;0.152;2023-05-18T03:52:44;16.52;;;5.60;;
29730;SDS011;16639;51.488;0.152;2023-05-18T03:55:12;12.18;;;5.25;;
29730;SDS011;16639;51.488;0.152;2023-05-18T03:57:39;12.70;;;4.70;;
29730;SDS011;16639;51.488;0.152;2023-05-18T04:00:07;15.63;;;6.45;;
29730;SDS011;16639;51.488;0.152;2023-05-18T04:02:38;14.18;;;5.32;;
29730;SDS011;16639;51.488;0.152;2023-05-18T04:05:06;23.92;;;5.32;;
29730;SDS011;16639;51.488;0.152;2023-05-18T04:07:34;11.38;;;5.68;;
29730;SDS011;16639;51.488;0.152;2023-05-18T04:10:10;23.07;;;5.60;;
29730;SDS011;16639;51.488;0.152;2023-05-18T04:12:38;18.00;;;5.70;;
29730;SDS011;16639;51.488;0.152;2023-05-18T04:15:06;18.02;;;5.70;;
29730;SDS011;16639;51.488;0.152;2023-05-18T04:17:34;12.10;;;5.40;;
29730;SDS011;16639;51.488;0.152;2023-05-18T04:20:01;13.38;;;5.00;;
29730;SDS011;16639;51.488;0.152;2023-05-18T04:22:39;12.43;;;5.25;;
29730;SDS011;16639;51.488;0.152;2023-05-18T04:25:15;15.65;;;4.80;;
29730;SDS011;16639;51.488;0.152;2023-05-18T04:27:43;13.68;;;5.07;;
29730;SDS011;16639;51.488;0.152;2023-05-18T04:30:11;16.60;;;5.95;;
29730;SDS011;16639;51.488;0.152;2023-05-18T04:32:39;22.23;;;6.00;;
29730;SDS011;16639;51.488;0.152;2023-05-18T04:35:09;16.08;;;5.90;;
29730;SDS011;16639;51.488;0.152;2023-05-18T04:37:37;17.92;;;5.35;;
29730;SDS011;16639;51.488;0.152;2023-05-18T04:40:06;21.77;;;6.13;;
29730;SDS011;16639;51.488;0.152;2023-05-18T04:42:41;16.23;;;6.25;;
29730;SDS011;16639;51.488;0.152;2023-05-18T04:45:14;16.05;;;6.10;;
29730;SDS011;16639;51.488;0.152;2023-05-18T04:47:52;15.93;;;5.93;;
29730;SDS011;16639;51.488;0.152;2023-05-18T04:50:20;14.10;;;6.60;;
29730;SDS011;16639;51.488;0.152;2023-05-18T04:52:51;23.35;;;6.45;;
29730;SDS011;16639;51.488;0.152;2023-05-18T04:55:20;21.25;;;5.93;;
29730;SDS011;16639;51.488;0.152;2023-05-18T04:57:52;23.00;;;6.03;;
29730;SDS011;16639;51.488;0.152;2023-05-18T05:00:23;18.23;;;5.22;;
29730;SDS011;16639;51.488;0.152;2023-05-18T05:02:52;18.08;;;5.60;;
29730;SDS011;16639;51.488;0.152;2023-05-18T05:05:20;15.05;;;5.53;;
29730;SDS011;16639;51.488;0.152;2023-05-18T05:07:48;18.60;;;5.78;;
29730;SDS011;16639;51.488;0.152;2023-05-18T05:10:18;17.95;;;6.68;;
29730;SDS011;16639;51.488;0.152;2023-05-18T05:12:47;13.98;;;5.63;;
29730;SDS011;16639;51.488;0.152;2023-05-18T05:15:17;15.93;;;6.30;;
29730;SDS011;16639;51.488;0.152;2023-05-18T05:17:46;20.08;;;6.93;;
29730;SDS011;16639;51.488;0.152;2023-05-18T05:20:14;17.10;;;6.32;;
29730;SDS011;16639;51.488;0.152;2023-05-18T05:22:41;12.48;;;5.70;;
29730;SDS011;16639;51.488;0.152;2023-05-18T05:25:09;12.18;;;5.57;;
29730;SDS011;16639;51.488;0.152;2023-05-18T05:27:37;24.63;;;6.40;;
29730;SDS011;16639;51.488;0.152;2023-05-18T05:30:04;19.00;;;6.43;;
29730;SDS011;16639;51.488;0.152;2023-05-18T05:32:33;20.20;;;5.55;;
29730;SDS011;16639;51.488;0.152;2023-05-18T05:35:02;28.00;;;6.13;;
29730;SDS011;16639;51.488;0.152;2023-05-18T05:37:30;10.95;;;5.80;;
29730;SDS011;16639;51.488;0.152;2023-05-18T05:39:57;10.27;;;4.93;;
29730;SDS011;16639;51.488;0.152;2023-05-18T05:42:25;12.75;;;5.60;;
29730;SDS011;16639;51.488;0.152;2023-05-18T05:44:53;17.27;;;6.53;;
29730;SDS011;16639;51.488;0.152;2023-05-18T05:47:20;22.90;;;6.18;;
29730;SDS011;16639;51.488;0.152;2023-05-18T05:49:47;11.90;;;5.85;;
29730;SDS011;16639;51.488;0.152;2023-05-18T05:52:15;22.55;;;6.82;;
29730;SDS011;16639;51.488;0.152;2023-05-18T05:54:42;15.90;;;6.63;;
29730;SDS011;16639;51.488;0.152;2023-05-18T05:57:10;19.10;;;6.00;;
29730;SDS011;16639;51.488;0.152;2023-05-18T05:59:37;17.67;;;6.75;;
29730;SDS011;16639;51.488;0.152;2023-05-18T06:02:05;22.67;;;8.32;;
29730;SDS011;16639;51.488;0.152;2023-05-18T06:04:33;16.33;;;6.28;;
29730;SDS011;16639;51.488;0.152;2023-05-18T06:07:00;19.42;;;6.38;;
29730;SDS011;16639;51.488;0.152;2023-05-18T06:09:27;21.33;;;7.70;;
29730;SDS011;16639;51.488;0.152;2023-05-18T06:11:55;13.65;;;6.25;;
29730;SDS011;16639;51.488;0.152;2023-05-18T06:14:24;19.52;;;5.40;;
29730;SDS011;16639;51.488;0.152;2023-05-18T06:16:51;15.35;;;5.80;;
29730;SDS011;16639;51.488;0.152;2023-05-18T06:19:19;19.48;;;5.90;;
29730;SDS011;16639;51.488;0.152;2023-05-18T06:21:46;16.15;;;5.72;;
29730;SDS011;16639;51.488;0.152;2023-05-18T06:24:13;13.13;;;7.32;;
29730;SDS011;16639;51.488;0.152;2023-05-18T06:26:41;17.13;;;5.63;;
29730;SDS011;16639;51.488;0.152;2023-05-18T06:29:09;14.23;;;5.78;;
29730;SDS011;16639;51.488;0.152;2023-05-18T06:31:36;16.15;;;5.78;;
29730;SDS011;16639;51.488;0.152;2023-05-18T06:34:04;12.00;;;5.50;;
29730;SDS011;16639;51.488;0.152;2023-05-18T06:36:31;12.68;;;5.40;;
29730;SDS011;16639;51.488;0.152;2023-05-18T06:39:00;20.58;;;5.10;;
29730;SDS011;16639;51.488;0.152;2023-05-18T06:41:27;10.50;;;5.07;;
29730;SDS011;16639;51.488;0.152;2023-05-18T06:43:55;17.13;;;5.22;;
29730;SDS011;16639;51.488;0.152;2023-05-18T06:46:26;14.88;;;4.45;;
29730;SDS011;16639;51.488;0.152;2023-05-18T06:48:53;14.15;;;4.95;;
29730;SDS011;16639;51.488;0.152;2023-05-18T06:51:21;10.68;;;4.40;;
29730;SDS011;16639;51.488;0.152;2023-05-18T06:53:48;14.55;;;5.10;;
29730;SDS011;16639;51.488;0.152;2023-05-18T06:56:16;19.63;;;5.55;;
29730;SDS011;16639;51.488;0.152;2023-05-18T06:58:44;19.33;;;5.63;;
29730;SDS011;16639;51.488;0.152;2023-05-18T07:01:11;16.48;;;6.90;;
29730;SDS011;16639;51.488;0.152;2023-05-18T07:03:39;30.33;;;6.85;;
29730;SDS011;16639;51.488;0.152;2023-05-18T07:06:06;13.50;;;5.57;;
29730;SDS011;16639;51.488;0.152;2023-05-18T07:08:34;15.18;;;6.20;;
29730;SDS011;16639;51.488;0.152;2023-05-18T07:11:04;20.65;;;6.28;;
29730;SDS011;16639;51.488;0.152;2023-05-18T07:13:32;11.65;;;5.15;;
29730;SDS011;16639;51.488;0.152;2023-05-18T07:15:59;15.07;;;6.15;;
29730;SDS011;16639;51.488;0.152;2023-05-18T07:18:27;23.85;;;5.70;;
29730;SDS011;16639;51.488;0.152;2023-05-18T07:20:55;17.27;;;5.55;;
29730;SDS011;16639;51.488;0.152;2023-05-18T07:23:22;19.70;;;6.85;;
29730;SDS011;16639;51.488;0.152;2023-05-18T07:25:49;16.55;;;5.93;;
29730;SDS011;16639;51.488;0.152;2023-05-18T07:28:17;13.30;;;5.47;;
29730;SDS011;16639;51.488;0.152;2023-05-18T07:30:45;14.15;;;7.15;;
29730;SDS011;16639;51.488;0.152;2023-05-18T07:33:12;23.42;;;5.68;;
29730;SDS011;16639;51.488;0.152;2023-05-18T07:35:40;16.58;;;4.25;;
29730;SDS011;16639;51.488;0.152;2023-05-18T07:38:07;13.80;;;4.93;;
29730;SDS011;16639;51.488;0.152;2023-05-18T07:40:35;20.20;;;5.85;;
29730;SDS011;16639;51.488;0.152;2023-05-18T07:43:02;19.17;;;7.22;;
29730;SDS011;16639;51.488;0.152;2023-05-18T07:45:29;16.08;;;7.28;;
29730;SDS011;16639;51.488;0.152;2023-05-18T07:47:57;17.17;;;5.93;;
29730;SDS011;16639;51.488;0.152;2023-05-18T07:50:26;19.58;;;5.90;;
29730;SDS011;16639;51.488;0.152;2023-05-18T07:52:55;16.02;;;6.53;;
29730;SDS011;16639;51.488;0.152;2023-05-18T07:55:22;23.50;;;8.40;;
29730;SDS011;16639;51.488;0.152;2023-05-18T07:57:50;20.92;;;8.40;;
29730;SDS011;16639;51.488;0.152;2023-05-18T08:00:18;17.50;;;6.82;;
29730;SDS011;16639;51.488;0.152;2023-05-18T08:02:46;23.98;;;7.90;;
29730;SDS011;16639;51.488;0.152;2023-05-18T08:05:14;37.05;;;9.73;;
29730;SDS011;16639;51.488;0.152;2023-05-18T08:07:41;36.22;;;9.35;;
29730;SDS011;16639;51.488;0.152;2023-05-18T08:10:09;29.02;;;8.35;;
29730;SDS011;16639;51.488;0.152;2023-05-18T08:12:37;18.17;;;6.82;;
29730;SDS011;16639;51.488;0.152;2023-05-18T08:15:05;20.42;;;6.53;;
29730;SDS011;16639;51.488;0.152;2023-05-18T08:17:33;22.45;;;5.55;;
29730;SDS011;16639;51.488;0.152;2023-05-18T08:20:00;15.73;;;5.80;;
29730;SDS011;16639;51.488;0.152;2023-05-18T08:22:28;16.27;;;5.93;;
29730;SDS011;16639;51.488;0.152;2023-05-18T08:24:56;12.32;;;5.50;;
29730;SDS011;16639;51.488;0.152;2023-05-18T08:27:27;20.83;;;5.70;;
29730;SDS011;16639;51.488;0.152;2023-05-18T08:29:54;18.45;;;6.07;;
29730;SDS011;16639;51.488;0.152;2023-05-18T08:32:22;26.73;;;6.07;;
29730;SDS011;16639;51.488;0.152;2023-05-18T08:34:49;24.17;;;6.47;;
29730;SDS011;16639;51.488;0.152;2023-05-18T08:37:17;19.17;;;5.00;;
29730;SDS011;16639;51.488;0.152;2023-05-18T08:39:45;20.83;;;6.47;;
29730;SDS011;16639;51.488;0.152;2023-05-18T08:42:21;13.73;;;5.10;;
29730;SDS011;16639;51.488;0.152;2023-05-18T08:45:10;19.83;;;6.18;;
29730;SDS011;16639;51.488;0.152;2023-05-18T08:47:42;11.52;;;5.93;;
29730;SDS011;16639;51.488;0.152;2023-05-18T08:50:12;13.75;;;5.53;;
29730;SDS011;16639;51.488;0.152;2023-05-18T08:52:46;20.48;;;5.80;;
29730;SDS011;16639;51.488;0.152;2023-05-18T08:55:14;14.35;;;4.65;;
29730;SDS011;16639;51.488;0.152;2023-05-18T08:57:45;12.27;;;5.78;;
29730;SDS011;16639;51.488;0.152;2023-05-18T09:00:16;14.82;;;5.40;;
29730;SDS011;16639;51.488;0.152;2023-05-18T09:02:44;19.00;;;6.57;;
29730;SDS011;16639;51.488;0.152;2023-05-18T09:05:13;12.75;;;4.75;;
29730;SDS011;16639;51.488;0.152;2023-05-18T09:07:42;19.13;;;5.15;;
29730;SDS011;16639;51.488;0.152;2023-05-18T09:10:10;18.60;;;5.88;;
29730;SDS011;16639;51.488;0.152;2023-05-18T09:12:40;12.25;;;4.38;;
29730;SDS011;16639;51.488;0.152;2023-05-18T09:15:09;15.30;;;4.97;;
29730;SDS011;16639;51.488;0.152;2023-05-18T09:17:37;17.17;;;5.75;;
29730;SDS011;16639;51.488;0.152;2023-05-18T09:20:05;9.77;;;4.75;;
29730;SDS011;16639;51.488;0.152;2023-05-18T09:22:33;20.60;;;6.70;;
29730;SDS011;16639;51.488;0.152;2023-05-18T09:25:09;13.93;;;5.68;;
29730;SDS011;16639;51.488;0.152;2023-05-18T09:27:37;15.73;;;5.35;;
29730;SDS011;16639;51.488;0.152;2023-05-18T09:30:08;16.02;;;5.60;;
29730;SDS011;16639;51.488;0.152;2023-05-18T09:32:37;23.52;;;6.57;;
29730;SDS011;16639;51.488;0.152;2023-05-18T09:35:08;13.50;;;5.18;;
29730;SDS011;16639;51.488;0.152;2023-05-18T09:37:36;17.90;;;5.65;;
29730;SDS011;16639;51.488;0.152;2023-05-18T09:40:08;15.63;;;5.82;;
29730;SDS011;16639;51.488;0.152;2023-05-18T09:42:39;16.00;;;5.38;;
29730;SDS011;16639;51.488;0.152;2023-05-18T09:45:16;23.80;;;6.22;;
29730;SDS011;16639;51.488;0.152;2023-05-18T09:47:49;20.73;;;5.82;;
29730;SDS011;16639;51.488;0.152;2023-05-18T09:50:18;14.20;;;5.43;;
29730;SDS011;16639;51.488;0.152;2023-05-18T09:52:46;16.40;;;5.35;;
29730;SDS011;16639;51.488;0.152;2023-05-18T09:55:18;13.82;;;5.78;;
29730;SDS011;16639;51.488;0.152;2023-05-18T09:57:47;19.65;;;5.80;;
29730;SDS011;16639;51.488;0.152;2023-05-18T10:00:16;17.05;;;4.97;;
29730;SDS011;16639;51.488;0.152;2023-05-18T10:02:46;15.20;;;5.47;;
29730;SDS011;16639;51.488;0.152;2023-05-18T10:05:22;25.48;;;7.60;;
29730;SDS011;16639;51.488;0.152;2023-05-18T10:07:50;17.05;;;5.90;;
29730;SDS011;16639;51.488;0.152;2023-05-18T10:10:21;15.30;;;5.80;;
29730;SDS011;16639;51.488;0.152;2023-05-18T10:12:54;14.60;;;4.88;;
29730;SDS011;16639;51.488;0.152;2023-05-18T10:15:25;21.38;;;6.13;;
29730;SDS011;16639;51.488;0.152;2023-05-18T10:17:54;19.63;;;6.53;;
29730;SDS011;16639;51.488;0.152;2023-05-18T10:20:23;13.55;;;5.85;;
29730;SDS011;16639;51.488;0.152;2023-05-18T10:22:53;19.13;;;5.75;;
29730;SDS011;16639;51.488;0.152;2023-05-18T10:25:22;12.63;;;6.03;;
29730;SDS011;16639;51.488;0.152;2023-05-18T10:27:55;18.48;;;6.05;;
29730;SDS011;16639;51.488;0.152;2023-05-18T10:30:26;10.48;;;5.63;;
29730;SDS011;16639;51.488;0.152;2023-05-18T10:32:54;26.00;;;5.95;;
29730;SDS011;16639;51.488;0.152;2023-05-18T10:35:24;19.42;;;5.95;;
29730;SDS011;16639;51.488;0.152;2023-05-18T10:37:54;14.13;;;5.85;;
29730;SDS011;16639;51.488;0.152;2023-05-18T10:40:25;15.75;;;5.40;;
29730;SDS011;16639;51.488;0.152;2023-05-18T10:42:55;17.85;;;5.63;;
29730;SDS011;16639;51.488;0.152;2023-05-18T10:45:24;18.50;;;6.22;;
29730;SDS011;16639;51.488;0.152;2023-05-18T10:47:53;21.13;;;5.75;;
29730;SDS011;16639;51.488;0.152;2023-05-18T10:50:23;17.85;;;5.68;;
29730;SDS011;16639;51.488;0.152;2023-05-18T10:52:52;15.50;;;5.90;;
29730;SDS011;16639;51.488;0.152;2023-05-18T10:55:20;22.35;;;6.30;;
29730;SDS011;16639;51.488;0.152;2023-05-18T10:57:50;12.60;;;5.40;;
29730;SDS011;16639;51.488;0.152;2023-05-18T11:00:21;18.65;;;6.68;;
29730;SDS011;16639;51.488;0.152;2023-05-18T11:02:48;10.70;;;4.97;;
29730;SDS011;16639;51.488;0.152;2023-05-18T11:05:24;13.52;;;5.72;;
29730;SDS011;16639;51.488;0.152;2023-05-18T11:08:02;22.33;;;5.57;;
29730;SDS011;16639;51.488;0.152;2023-05-18T11:10:32;13.75;;;4.43;;
29730;SDS011;16639;51.488;0.152;2023-05-18T11:13:07;25.48;;;5.68;;
29730;SDS011;16639;51.488;0.152;2023-05-18T11:18:25;10.63;;;4.60;;
29730;SDS011;16639;51.488;0.152;2023-05-18T11:20:58;11.13;;;3.95;;
29730;SDS011;16639;51.488;0.152;2023-05-18T11:23:33;20.90;;;5.57;;
29730;SDS011;16639;51.488;0.152;2023-05-18T11:26:00;13.52;;;4.43;;
29730;SDS011;16639;51.488;0.152;2023-05-18T11:28:31;11.07;;;3.90;;
29730;SDS011;16639;51.488;0.152;2023-05-18T11:31:08;17.45;;;5.10;;
29730;SDS011;16639;51.488;0.152;2023-05-18T11:33:43;19.27;;;5.30;;
29730;SDS011;16639;51.488;0.152;2023-05-18T11:36:11;12.50;;;4.82;;
29730;SDS011;16639;51.488;0.152;2023-05-18T11:49:27;10.70;;;4.43;;
29730;SDS011;16639;51.488;0.152;2023-05-18T11:54:39;12.88;;;4.55;;
29730;SDS011;16639;51.488;0.152;2023-05-18T11:57:10;12.13;;;4.53;;
29730;SDS011;16639;51.488;0.152;2023-05-18T11:59:39;12.82;;;5.07;;
29730;SDS011;16639;51.488;0.152;2023-05-18T12:02:12;17.95;;;5.70;;
29730;SDS011;16639;51.488;0.152;2023-05-18T12:04:48;12.25;;;4.82;;
29730;SDS011;16639;51.488;0.152;2023-05-18T12:07:19;11.93;;;4.82;;
29730;SDS011;16639;51.488;0.152;2023-05-18T12:09:47;17.52;;;4.47;;
29730;SDS011;16639;51.488;0.152;2023-05-18T12:12:16;12.30;;;4.07;;
29730;SDS011;16639;51.488;0.152;2023-05-18T12:14:53;16.90;;;5.50;;
29730;SDS011;16639;51.488;0.152;2023-05-18T12:17:23;7.65;;;4.00;;
29730;SDS011;16639;51.488;0.152;2023-05-18T12:20:10;19.48;;;4.93;;
29730;SDS011;16639;51.488;0.152;2023-05-18T12:22:47;16.50;;;5.30;;
29730;SDS011;16639;51.488;0.152;2023-05-18T12:25:16;9.00;;;4.15;;
29730;SDS011;16639;51.488;0.152;2023-05-18T12:27:44;18.70;;;4.93;;
29730;SDS011;16639;51.488;0.152;2023-05-18T12:32:52;14.43;;;5.22;;
29730;SDS011;16639;51.488;0.152;2023-05-18T12:35:21;12.00;;;3.78;;
29730;SDS011;16639;51.488;0.152;2023-05-18T12:37:49;16.33;;;3.95;;
29730;SDS011;16639;51.488;0.152;2023-05-18T12:40:17;15.82;;;4.70;;
29730;SDS011;16639;51.488;0.152;2023-05-18T12:42:52;15.32;;;4.22;;
29730;SDS011;16639;51.488;0.152;2023-05-18T12:45:26;16.63;;;4.00;;
29730;SDS011;16639;51.488;0.152;2023-05-18T12:47:55;11.15;;;3.40;;
29730;SDS011;16639;51.488;0.152;2023-05-18T12:50:23;14.35;;;4.70;;
29730;SDS011;16639;51.488;0.152;2023-05-18T12:52:54;13.75;;;4.43;;
29730;SDS011;16639;51.488;0.152;2023-05-18T12:55:23;11.40;;;4.25;;
29730;SDS011;16639;51.488;0.152;2023-05-18T12:57:58;14.25;;;3.92;;
29730;SDS011;16639;51.488;0.152;2023-05-18T13:00:34;14.10;;;4.57;;
29730;SDS011;16639;51.488;0.152;2023-05-18T13:03:09;16.58;;;5.45;;
29730;SDS011;16639;51.488;0.152;2023-05-18T13:05:42;11.95;;;4.28;;
29730;SDS011;16639;51.488;0.152;2023-05-18T13:08:14;13.30;;;4.35;;
29730;SDS011;16639;51.488;0.152;2023-05-18T13:13:31;12.68;;;4.05;;
29730;SDS011;16639;51.488;0.152;2023-05-18T13:15:59;6.55;;;3.83;;
29730;SDS011;16639;51.488;0.152;2023-05-18T13:18:26;15.73;;;4.93;;
29730;SDS011;16639;51.488;0.152;2023-05-18T13:20:54;13.18;;;4.57;;
29730;SDS011;16639;51.488;0.152;2023-05-18T13:23:25;15.32;;;4.00;;
29730;SDS011;16639;51.488;0.152;2023-05-18T13:25:54;11.82;;;4.68;;
29730;SDS011;16639;51.488;0.152;2023-05-18T13:28:25;14.32;;;4.22;;
29730;SDS011;16639;51.488;0.152;2023-05-18T13:30:53;17.75;;;4.75;;
29730;SDS011;16639;51.488;0.152;2023-05-18T13:33:20;19.60;;;4.60;;
29730;SDS011;16639;51.488;0.152;2023-05-18T13:35:49;14.18;;;4.75;;
29730;SDS011;16639;51.488;0.152;2023-05-18T13:38:16;11.40;;;4.18;;
29730;SDS011;16639;51.488;0.152;2023-05-18T13:40:44;11.25;;;3.70;;
29730;SDS011;16639;51.488;0.152;2023-05-18T13:43:12;12.60;;;3.53;;
29730;SDS011;16639;51.488;0.152;2023-05-18T13:45:40;12.73;;;4.15;;
29730;SDS011;16639;51.488;0.152;2023-05-18T13:48:08;12.18;;;4.35;;
29730;SDS011;16639;51.488;0.152;2023-05-18T13:50:37;10.50;;;3.67;;
29730;SDS011;16639;51.488;0.152;2023-05-18T13:53:05;11.50;;;4.03;;
29730;SDS011;16639;51.488;0.152;2023-05-18T13:55:33;16.25;;;3.88;;
29730;SDS011;16639;51.488;0.152;2023-05-18T13:58:01;11.70;;;4.90;;
29730;SDS011;16639;51.488;0.152;2023-05-18T14:00:29;13.85;;;3.72;;
29730;SDS011;16639;51.488;0.152;2023-05-18T14:02:59;14.57;;;3.92;;
29730;SDS011;16639;51.488;0.152;2023-05-18T14:05:27;16.25;;;3.88;;
29730;SDS011;16639;51.488;0.152;2023-05-18T14:07:55;9.13;;;4.45;;
29730;SDS011;16639;51.488;0.152;2023-05-18T14:10:23;12.20;;;4.22;;
29730;SDS011;16639;51.488;0.152;2023-05-18T14:12:50;6.82;;;2.90;;
29730;SDS011;16639;51.488;0.152;2023-05-18T14:15:18;12.35;;;4.05;;
29730;SDS011;16639;51.488;0.152;2023-05-18T14:17:45;14.18;;;4.03;;
29730;SDS011;16639;51.488;0.152;2023-05-18T14:20:13;11.52;;;4.55;;
29730;SDS011;16639;51.488;0.152;2023-05-18T14:22:40;11.73;;;4.32;;
29730;SDS011;16639;51.488;0.152;2023-05-18T14:25:08;10.48;;;3.20;;
29730;SDS011;16639;51.488;0.152;2023-05-18T14:27:36;17.55;;;4.85;;
29730;SDS011;16639;51.488;0.152;2023-05-18T14:30:03;17.13;;;5.25;;
29730;SDS011;16639;51.488;0.152;2023-05-18T14:32:32;14.68;;;4.13;;
29730;SDS011;16639;51.488;0.152;2023-05-18T14:34:59;13.65;;;3.90;;
29730;SDS011;16639;51.488;0.152;2023-05-18T14:37:27;21.00;;;4.38;;
29730;SDS011;16639;51.488;0.152;2023-05-18T14:39:55;14.50;;;4.80;;
29730;SDS011;16639;51.488;0.152;2023-05-18T14:42:22;18.45;;;3.22;;
29730;SDS011;16639;51.488;0.152;2023-05-18T14:44:50;16.70;;;4.72;;
29730;SDS011;16639;51.488;0.152;2023-05-18T14:47:17;10.13;;;3.67;;
29730;SDS011;16639;51.488;0.152;2023-05-18T14:49:44;12.45;;;3.33;;
29730;SDS011;16639;51.488;0.152;2023-05-18T14:52:12;15.25;;;4.38;;
29730;SDS011;16639;51.488;0.152;2023-05-18T14:54:40;9.80;;;3.95;;
29730;SDS011;16639;51.488;0.152;2023-05-18T14:57:08;17.60;;;4.38;;
29730;SDS011;16639;51.488;0.152;2023-05-18T14:59:35;9.93;;;3.45;;
29730;SDS011;16639;51.488;0.152;2023-05-18T15:02:03;12.80;;;4.05;;
29730;SDS011;16639;51.488;0.152;2023-05-18T15:04:31;13.82;;;4.43;;
29730;SDS011;16639;51.488;0.152;2023-05-18T15:06:58;10.70;;;3.53;;
29730;SDS011;16639;51.488;0.152;2023-05-18T15:09:26;14.20;;;3.95;;
29730;SDS011;16639;51.488;0.152;2023-05-18T15:11:53;17.60;;;3.85;;
29730;SDS011;16639;51.488;0.152;2023-05-18T15:14:21;9.75;;;3.58;;
29730;SDS011;16639;51.488;0.152;2023-05-18T15:16:49;14.10;;;4.05;;